sensor_id;sensor_type;location;lat;lon;timestamp;P1;durP1;ratioP1;P2;durP2;ratioP2
66095;SDS011;53861;53.422;14.530;2023-04-01T00:01:07;45.17;;;14.82;;
66095;SDS011;53861;53.422;14.530;2023-04-01T00:03:35;43.55;;;13.98;;
66095;SDS011;53861;53.422;14.530;2023-04-01T00:06:03;38.90;;;12.60;;
66095;SDS011;53861;53.422;14.530;2023-04-01T00:08:31;43.38;;;13.15;;
66095;SDS011;53861;53.422;14.530;2023-04-01T00:10:58;45.30;;;14.15;;
66095;SDS011;53861;53.422;14.530;2023-04-01T00:13:27;41.60;;;12.70;;
66095;SDS011;53861;53.422;14.530;2023-04-01T00:15:54;43.08;;;13.35;;
66095;SDS011;53861;53.422;14.530;2023-04-01T00:18:23;45.67;;;13.68;;
66095;SDS011;53861;53.422;14.530;2023-04-01T00:20:51;43.60;;;13.82;;
66095;SDS011;53861;53.422;14.530;2023-04-01T00:23:19;41.97;;;13.40;;
66095;SDS011;53861;53.422;14.530;2023-04-01T00:25:49;46.85;;;14.18;;
66095;SDS011;53861;53.422;14.530;2023-04-01T00:28:17;54.78;;;13.20;;
66095;SDS011;53861;53.422;14.530;2023-04-01T00:30:48;42.10;;;13.73;;
66095;SDS011;53861;53.422;14.530;2023-04-01T00:33:15;43.50;;;14.30;;
66095;SDS011;53861;53.422;14.530;2023-04-01T00:35:43;37.35;;;11.82;;
66095;SDS011;53861;53.422;14.530;2023-04-01T00:38:10;39.22;;;13.32;;
66095;SDS011;53861;53.422;14.530;2023-04-01T00:40:38;43.10;;;13.10;;
66095;SDS011;53861;53.422;14.530;2023-04-01T00:43:11;41.25;;;13.23;;
66095;SDS011;53861;53.422;14.530;2023-04-01T00:45:41;45.45;;;13.88;;
66095;SDS011;53861;53.422;14.530;2023-04-01T00:48:13;48.47;;;15.15;;
66095;SDS011;53861;53.422;14.530;2023-04-01T00:50:47;45.33;;;14.20;;
66095;SDS011;53861;53.422;14.530;2023-04-01T00:53:17;50.58;;;15.95;;
66095;SDS011;53861;53.422;14.530;2023-04-01T00:55:50;43.40;;;14.43;;
66095;SDS011;53861;53.422;14.530;2023-04-01T00:58:21;40.65;;;12.80;;
66095;SDS011;53861;53.422;14.530;2023-04-01T01:00:51;31.50;;;10.82;;
66095;SDS011;53861;53.422;14.530;2023-04-01T01:03:20;34.28;;;11.55;;
66095;SDS011;53861;53.422;14.530;2023-04-01T01:05:55;31.65;;;11.48;;
66095;SDS011;53861;53.422;14.530;2023-04-01T01:08:47;44.40;;;12.70;;
66095;SDS011;53861;53.422;14.530;2023-04-01T01:11:25;38.08;;;12.27;;
66095;SDS011;53861;53.422;14.530;2023-04-01T01:14:05;42.58;;;12.63;;
66095;SDS011;53861;53.422;14.530;2023-04-01T01:16:44;39.42;;;11.57;;
66095;SDS011;53861;53.422;14.530;2023-04-01T01:19:23;41.17;;;12.20;;
66095;SDS011;53861;53.422;14.530;2023-04-01T01:22:18;40.72;;;12.55;;
66095;SDS011;53861;53.422;14.530;2023-04-01T01:25:07;47.65;;;14.35;;
66095;SDS011;53861;53.422;14.530;2023-04-01T01:27:54;40.83;;;13.02;;
66095;SDS011;53861;53.422;14.530;2023-04-01T01:30:37;38.92;;;11.32;;
66095;SDS011;53861;53.422;14.530;2023-04-01T01:36:12;35.80;;;11.07;;
66095;SDS011;53861;53.422;14.530;2023-04-01T01:38:41;31.38;;;10.45;;
66095;SDS011;53861;53.422;14.530;2023-04-01T01:41:11;34.38;;;11.15;;
66095;SDS011;53861;53.422;14.530;2023-04-01T01:43:46;45.97;;;14.23;;
66095;SDS011;53861;53.422;14.530;2023-04-01T01:46:21;32.80;;;10.63;;
66095;SDS011;53861;53.422;14.530;2023-04-01T01:48:53;34.40;;;12.10;;
66095;SDS011;53861;53.422;14.530;2023-04-01T01:51:23;27.08;;;9.82;;
66095;SDS011;53861;53.422;14.530;2023-04-01T01:53:55;24.95;;;8.77;;
66095;SDS011;53861;53.422;14.530;2023-04-01T01:56:23;23.13;;;7.95;;
66095;SDS011;53861;53.422;14.530;2023-04-01T01:58:58;17.50;;;7.20;;
66095;SDS011;53861;53.422;14.530;2023-04-01T02:01:29;23.98;;;9.43;;
66095;SDS011;53861;53.422;14.530;2023-04-01T02:04:00;23.80;;;9.18;;
66095;SDS011;53861;53.422;14.530;2023-04-01T02:06:30;22.23;;;8.43;;
66095;SDS011;53861;53.422;14.530;2023-04-01T02:09:02;18.88;;;7.47;;
66095;SDS011;53861;53.422;14.530;2023-04-01T02:11:36;15.55;;;6.00;;
66095;SDS011;53861;53.422;14.530;2023-04-01T02:14:07;16.70;;;5.43;;
66095;SDS011;53861;53.422;14.530;2023-04-01T02:16:40;13.13;;;5.72;;
66095;SDS011;53861;53.422;14.530;2023-04-01T02:19:16;13.10;;;5.60;;
66095;SDS011;53861;53.422;14.530;2023-04-01T02:21:50;16.33;;;6.40;;
66095;SDS011;53861;53.422;14.530;2023-04-01T02:24:20;15.65;;;5.88;;
66095;SDS011;53861;53.422;14.530;2023-04-01T02:26:50;13.90;;;6.10;;
66095;SDS011;53861;53.422;14.530;2023-04-01T02:29:19;14.23;;;5.88;;
66095;SDS011;53861;53.422;14.530;2023-04-01T02:31:48;21.42;;;8.00;;
66095;SDS011;53861;53.422;14.530;2023-04-01T02:34:17;16.50;;;6.65;;
66095;SDS011;53861;53.422;14.530;2023-04-01T02:36:45;17.90;;;6.45;;
66095;SDS011;53861;53.422;14.530;2023-04-01T02:39:15;18.60;;;6.68;;
66095;SDS011;53861;53.422;14.530;2023-04-01T02:41:44;15.52;;;6.32;;
66095;SDS011;53861;53.422;14.530;2023-04-01T02:44:13;22.33;;;6.72;;
66095;SDS011;53861;53.422;14.530;2023-04-01T02:46:41;18.52;;;7.28;;
66095;SDS011;53861;53.422;14.530;2023-04-01T02:49:11;17.98;;;7.75;;
66095;SDS011;53861;53.422;14.530;2023-04-01T02:51:39;20.17;;;7.35;;
66095;SDS011;53861;53.422;14.530;2023-04-01T02:54:06;18.17;;;7.10;;
66095;SDS011;53861;53.422;14.530;2023-04-01T02:56:36;20.27;;;7.05;;
66095;SDS011;53861;53.422;14.530;2023-04-01T02:59:03;19.23;;;7.10;;
66095;SDS011;53861;53.422;14.530;2023-04-01T03:01:30;17.63;;;6.60;;
66095;SDS011;53861;53.422;14.530;2023-04-01T03:04:01;18.60;;;7.35;;
66095;SDS011;53861;53.422;14.530;2023-04-01T03:06:28;20.02;;;7.55;;
66095;SDS011;53861;53.422;14.530;2023-04-01T03:08:56;18.90;;;6.88;;
66095;SDS011;53861;53.422;14.530;2023-04-01T03:11:26;18.05;;;6.68;;
66095;SDS011;53861;53.422;14.530;2023-04-01T03:13:57;20.70;;;7.18;;
66095;SDS011;53861;53.422;14.530;2023-04-01T03:16:25;21.20;;;7.47;;
66095;SDS011;53861;53.422;14.530;2023-04-01T03:18:55;21.27;;;6.97;;
66095;SDS011;53861;53.422;14.530;2023-04-01T03:21:25;19.37;;;7.53;;
66095;SDS011;53861;53.422;14.530;2023-04-01T03:23:53;17.08;;;6.53;;
66095;SDS011;53861;53.422;14.530;2023-04-01T03:26:20;15.77;;;6.65;;
66095;SDS011;53861;53.422;14.530;2023-04-01T03:28:51;19.52;;;7.07;;
66095;SDS011;53861;53.422;14.530;2023-04-01T03:31:19;17.73;;;6.50;;
66095;SDS011;53861;53.422;14.530;2023-04-01T03:33:47;16.48;;;6.78;;
66095;SDS011;53861;53.422;14.530;2023-04-01T03:36:14;20.38;;;7.80;;
66095;SDS011;53861;53.422;14.530;2023-04-01T03:38:42;21.35;;;7.95;;
66095;SDS011;53861;53.422;14.530;2023-04-01T03:41:16;25.63;;;9.40;;
66095;SDS011;53861;53.422;14.530;2023-04-01T03:43:46;22.90;;;8.45;;
66095;SDS011;53861;53.422;14.530;2023-04-01T03:46:16;22.33;;;8.13;;
66095;SDS011;53861;53.422;14.530;2023-04-01T03:48:50;23.60;;;8.35;;
66095;SDS011;53861;53.422;14.530;2023-04-01T03:51:20;24.17;;;9.05;;
66095;SDS011;53861;53.422;14.530;2023-04-01T03:53:48;22.70;;;9.50;;
66095;SDS011;53861;53.422;14.530;2023-04-01T03:56:16;21.70;;;8.43;;
66095;SDS011;53861;53.422;14.530;2023-04-01T03:58:46;22.50;;;7.60;;
66095;SDS011;53861;53.422;14.530;2023-04-01T04:01:17;21.00;;;8.57;;
66095;SDS011;53861;53.422;14.530;2023-04-01T04:03:49;20.10;;;8.13;;
66095;SDS011;53861;53.422;14.530;2023-04-01T04:06:18;19.63;;;7.82;;
66095;SDS011;53861;53.422;14.530;2023-04-01T04:08:48;22.08;;;7.95;;
66095;SDS011;53861;53.422;14.530;2023-04-01T04:11:16;20.33;;;7.88;;
66095;SDS011;53861;53.422;14.530;2023-04-01T04:13:44;17.45;;;7.40;;
66095;SDS011;53861;53.422;14.530;2023-04-01T04:16:13;19.45;;;7.07;;
66095;SDS011;53861;53.422;14.530;2023-04-01T04:18:41;18.08;;;7.13;;
66095;SDS011;53861;53.422;14.530;2023-04-01T04:21:15;16.83;;;7.30;;
66095;SDS011;53861;53.422;14.530;2023-04-01T04:23:45;17.70;;;6.28;;
66095;SDS011;53861;53.422;14.530;2023-04-01T04:26:13;18.90;;;7.30;;
66095;SDS011;53861;53.422;14.530;2023-04-01T04:28:41;15.77;;;6.75;;
66095;SDS011;53861;53.422;14.530;2023-04-01T04:31:09;18.25;;;7.05;;
66095;SDS011;53861;53.422;14.530;2023-04-01T04:33:36;18.92;;;7.35;;
66095;SDS011;53861;53.422;14.530;2023-04-01T04:36:04;18.02;;;7.10;;
66095;SDS011;53861;53.422;14.530;2023-04-01T04:38:34;20.42;;;7.57;;
66095;SDS011;53861;53.422;14.530;2023-04-01T04:41:01;18.85;;;6.85;;
66095;SDS011;53861;53.422;14.530;2023-04-01T04:43:29;19.58;;;7.50;;
66095;SDS011;53861;53.422;14.530;2023-04-01T04:46:03;15.90;;;7.03;;
66095;SDS011;53861;53.422;14.530;2023-04-01T04:48:31;19.77;;;7.40;;
66095;SDS011;53861;53.422;14.530;2023-04-01T04:50:59;19.23;;;7.32;;
66095;SDS011;53861;53.422;14.530;2023-04-01T04:53:26;21.92;;;8.18;;
66095;SDS011;53861;53.422;14.530;2023-04-01T04:55:55;22.42;;;9.15;;
66095;SDS011;53861;53.422;14.530;2023-04-01T04:58:23;23.38;;;9.32;;
66095;SDS011;53861;53.422;14.530;2023-04-01T05:00:50;22.60;;;9.07;;
66095;SDS011;53861;53.422;14.530;2023-04-01T05:03:17;23.23;;;8.45;;
66095;SDS011;53861;53.422;14.530;2023-04-01T05:05:48;20.17;;;7.82;;
66095;SDS011;53861;53.422;14.530;2023-04-01T05:08:17;21.40;;;7.70;;
66095;SDS011;53861;53.422;14.530;2023-04-01T05:10:44;19.45;;;7.65;;
66095;SDS011;53861;53.422;14.530;2023-04-01T05:13:15;16.38;;;6.88;;
66095;SDS011;53861;53.422;14.530;2023-04-01T05:15:42;18.60;;;7.07;;
66095;SDS011;53861;53.422;14.530;2023-04-01T05:18:09;19.42;;;7.53;;
66095;SDS011;53861;53.422;14.530;2023-04-01T05:20:38;17.02;;;6.78;;
66095;SDS011;53861;53.422;14.530;2023-04-01T05:23:05;19.55;;;7.38;;
66095;SDS011;53861;53.422;14.530;2023-04-01T05:25:32;27.08;;;8.63;;
66095;SDS011;53861;53.422;14.530;2023-04-01T05:28:00;27.45;;;9.95;;
66095;SDS011;53861;53.422;14.530;2023-04-01T05:30:31;30.65;;;10.35;;
66095;SDS011;53861;53.422;14.530;2023-04-01T05:32:59;25.70;;;8.88;;
66095;SDS011;53861;53.422;14.530;2023-04-01T05:35:26;25.00;;;8.65;;
66095;SDS011;53861;53.422;14.530;2023-04-01T05:37:53;22.33;;;8.73;;
66095;SDS011;53861;53.422;14.530;2023-04-01T05:40:20;23.58;;;8.52;;
66095;SDS011;53861;53.422;14.530;2023-04-01T05:42:49;22.25;;;8.52;;
66095;SDS011;53861;53.422;14.530;2023-04-01T05:45:17;24.13;;;8.88;;
66095;SDS011;53861;53.422;14.530;2023-04-01T05:47:46;22.80;;;8.18;;
66095;SDS011;53861;53.422;14.530;2023-04-01T05:50:13;18.15;;;7.22;;
66095;SDS011;53861;53.422;14.530;2023-04-01T05:52:40;15.95;;;6.25;;
66095;SDS011;53861;53.422;14.530;2023-04-01T05:55:08;18.30;;;6.82;;
66095;SDS011;53861;53.422;14.530;2023-04-01T05:57:36;22.55;;;7.22;;
66095;SDS011;53861;53.422;14.530;2023-04-01T06:00:05;24.30;;;8.57;;
66095;SDS011;53861;53.422;14.530;2023-04-01T06:02:34;23.02;;;7.97;;
66095;SDS011;53861;53.422;14.530;2023-04-01T06:05:10;19.25;;;7.80;;
66095;SDS011;53861;53.422;14.530;2023-04-01T06:07:40;20.35;;;7.63;;
66095;SDS011;53861;53.422;14.530;2023-04-01T06:10:12;20.10;;;8.05;;
66095;SDS011;53861;53.422;14.530;2023-04-01T06:12:47;20.83;;;7.72;;
66095;SDS011;53861;53.422;14.530;2023-04-01T06:15:33;17.75;;;6.70;;
66095;SDS011;53861;53.422;14.530;2023-04-01T06:18:24;18.77;;;6.07;;
66095;SDS011;53861;53.422;14.530;2023-04-01T06:21:20;19.85;;;7.22;;
66095;SDS011;53861;53.422;14.530;2023-04-01T06:23:59;21.27;;;8.63;;
66095;SDS011;53861;53.422;14.530;2023-04-01T06:26:34;13.48;;;6.00;;
66095;SDS011;53861;53.422;14.530;2023-04-01T06:29:10;15.35;;;6.40;;
66095;SDS011;53861;53.422;14.530;2023-04-01T06:32:01;19.80;;;7.90;;
66095;SDS011;53861;53.422;14.530;2023-04-01T06:34:46;25.50;;;9.13;;
66095;SDS011;53861;53.422;14.530;2023-04-01T06:40:20;28.83;;;11.77;;
66095;SDS011;53861;53.422;14.530;2023-04-01T06:43:01;26.63;;;9.45;;
66095;SDS011;53861;53.422;14.530;2023-04-01T06:45:39;19.92;;;7.65;;
66095;SDS011;53861;53.422;14.530;2023-04-01T06:48:17;18.60;;;8.00;;
66095;SDS011;53861;53.422;14.530;2023-04-01T06:50:58;20.73;;;8.05;;
66095;SDS011;53861;53.422;14.530;2023-04-01T06:53:37;21.10;;;8.20;;
66095;SDS011;53861;53.422;14.530;2023-04-01T06:56:16;20.77;;;7.45;;
66095;SDS011;53861;53.422;14.530;2023-04-01T06:58:51;18.15;;;6.28;;
66095;SDS011;53861;53.422;14.530;2023-04-01T07:01:21;16.73;;;7.18;;
66095;SDS011;53861;53.422;14.530;2023-04-01T07:03:55;20.75;;;7.38;;
66095;SDS011;53861;53.422;14.530;2023-04-01T07:06:27;16.65;;;6.80;;
66095;SDS011;53861;53.422;14.530;2023-04-01T07:09:02;19.85;;;6.82;;
66095;SDS011;53861;53.422;14.530;2023-04-01T07:11:35;19.15;;;7.25;;
66095;SDS011;53861;53.422;14.530;2023-04-01T07:14:11;20.50;;;6.85;;
66095;SDS011;53861;53.422;14.530;2023-04-01T07:16:44;20.42;;;7.55;;
66095;SDS011;53861;53.422;14.530;2023-04-01T07:19:17;20.35;;;7.97;;
66095;SDS011;53861;53.422;14.530;2023-04-01T07:21:56;27.25;;;10.65;;
66095;SDS011;53861;53.422;14.530;2023-04-01T07:24:32;19.88;;;7.60;;
66095;SDS011;53861;53.422;14.530;2023-04-01T07:27:01;21.75;;;9.05;;
66095;SDS011;53861;53.422;14.530;2023-04-01T07:29:32;22.00;;;8.57;;
66095;SDS011;53861;53.422;14.530;2023-04-01T07:34:55;26.80;;;10.43;;
66095;SDS011;53861;53.422;14.530;2023-04-01T07:37:45;20.25;;;9.48;;
66095;SDS011;53861;53.422;14.530;2023-04-01T07:40:24;20.58;;;8.20;;
66095;SDS011;53861;53.422;14.530;2023-04-01T07:43:05;22.15;;;8.05;;
66095;SDS011;53861;53.422;14.530;2023-04-01T07:45:45;19.90;;;7.60;;
66095;SDS011;53861;53.422;14.530;2023-04-01T07:48:20;19.77;;;7.75;;
66095;SDS011;53861;53.422;14.530;2023-04-01T07:50:59;24.05;;;8.40;;
66095;SDS011;53861;53.422;14.530;2023-04-01T07:53:31;23.83;;;8.30;;
66095;SDS011;53861;53.422;14.530;2023-04-01T07:56:06;22.45;;;8.27;;
66095;SDS011;53861;53.422;14.530;2023-04-01T08:01:19;18.08;;;7.80;;
66095;SDS011;53861;53.422;14.530;2023-04-01T08:03:59;23.05;;;9.63;;
66095;SDS011;53861;53.422;14.530;2023-04-01T08:06:42;24.08;;;9.90;;
66095;SDS011;53861;53.422;14.530;2023-04-01T08:09:18;18.48;;;7.75;;
66095;SDS011;53861;53.422;14.530;2023-04-01T08:12:00;22.48;;;8.38;;
66095;SDS011;53861;53.422;14.530;2023-04-01T08:14:39;19.50;;;7.70;;
66095;SDS011;53861;53.422;14.530;2023-04-01T08:17:15;17.70;;;7.65;;
66095;SDS011;53861;53.422;14.530;2023-04-01T08:19:53;21.85;;;10.40;;
66095;SDS011;53861;53.422;14.530;2023-04-01T08:22:27;23.10;;;8.98;;
66095;SDS011;53861;53.422;14.530;2023-04-01T08:24:58;23.33;;;8.88;;
66095;SDS011;53861;53.422;14.530;2023-04-01T08:27:36;28.60;;;10.70;;
66095;SDS011;53861;53.422;14.530;2023-04-01T08:30:06;23.83;;;9.83;;
66095;SDS011;53861;53.422;14.530;2023-04-01T08:32:45;21.52;;;9.20;;
66095;SDS011;53861;53.422;14.530;2023-04-01T08:35:18;27.85;;;10.80;;
66095;SDS011;53861;53.422;14.530;2023-04-01T08:37:52;19.20;;;8.50;;
66095;SDS011;53861;53.422;14.530;2023-04-01T08:40:27;22.65;;;10.45;;
66095;SDS011;53861;53.422;14.530;2023-04-01T08:43:12;23.42;;;9.15;;
66095;SDS011;53861;53.422;14.530;2023-04-01T08:46:02;20.63;;;9.63;;
66095;SDS011;53861;53.422;14.530;2023-04-01T08:48:47;32.63;;;12.88;;
66095;SDS011;53861;53.422;14.530;2023-04-01T08:54:34;29.05;;;12.85;;
66095;SDS011;53861;53.422;14.530;2023-04-01T08:57:12;24.00;;;10.27;;
66095;SDS011;53861;53.422;14.530;2023-04-01T08:59:52;22.30;;;8.48;;
66095;SDS011;53861;53.422;14.530;2023-04-01T09:02:43;31.13;;;12.00;;
66095;SDS011;53861;53.422;14.530;2023-04-01T09:08:28;24.50;;;10.32;;
66095;SDS011;53861;53.422;14.530;2023-04-01T09:11:07;28.90;;;12.95;;
66095;SDS011;53861;53.422;14.530;2023-04-01T09:16:17;30.40;;;12.63;;
66095;SDS011;53861;53.422;14.530;2023-04-01T09:18:58;32.85;;;13.93;;
66095;SDS011;53861;53.422;14.530;2023-04-01T09:21:51;38.28;;;17.42;;
66095;SDS011;53861;53.422;14.530;2023-04-01T09:27:27;31.70;;;13.30;;
66095;SDS011;53861;53.422;14.530;2023-04-01T09:36:24;30.00;;;11.90;;
66095;SDS011;53861;53.422;14.530;2023-04-01T09:39:06;27.83;;;11.75;;
66095;SDS011;53861;53.422;14.530;2023-04-01T09:41:46;25.48;;;10.10;;
66095;SDS011;53861;53.422;14.530;2023-04-01T09:44:25;20.70;;;7.80;;
66095;SDS011;53861;53.422;14.530;2023-04-01T09:47:01;19.75;;;8.52;;
66095;SDS011;53861;53.422;14.530;2023-04-01T09:49:47;20.23;;;8.75;;
66095;SDS011;53861;53.422;14.530;2023-04-01T09:52:25;23.73;;;8.57;;
66095;SDS011;53861;53.422;14.530;2023-04-01T09:55:12;21.58;;;8.68;;
66095;SDS011;53861;53.422;14.530;2023-04-01T10:01:04;28.27;;;10.00;;
66095;SDS011;53861;53.422;14.530;2023-04-01T10:04:11;20.23;;;8.05;;
66095;SDS011;53861;53.422;14.530;2023-04-01T10:07:13;17.33;;;6.78;;
66095;SDS011;53861;53.422;14.530;2023-04-01T10:10:31;18.77;;;8.05;;
66095;SDS011;53861;53.422;14.530;2023-04-01T10:13:20;22.67;;;8.93;;
66095;SDS011;53861;53.422;14.530;2023-04-01T10:16:19;29.58;;;8.95;;
66095;SDS011;53861;53.422;14.530;2023-04-01T10:19:17;33.78;;;14.18;;
66095;SDS011;53861;53.422;14.530;2023-04-01T10:25:21;30.42;;;13.23;;
66095;SDS011;53861;53.422;14.530;2023-04-01T10:31:08;17.20;;;7.90;;
66095;SDS011;53861;53.422;14.530;2023-04-01T10:36:32;26.20;;;8.82;;
66095;SDS011;53861;53.422;14.530;2023-04-01T10:55:12;16.48;;;6.95;;
66095;SDS011;53861;53.422;14.530;2023-04-01T10:58:02;14.18;;;6.18;;
66095;SDS011;53861;53.422;14.530;2023-04-01T11:00:57;18.33;;;6.85;;
66095;SDS011;53861;53.422;14.530;2023-04-01T11:04:04;21.52;;;7.63;;
66095;SDS011;53861;53.422;14.530;2023-04-01T11:07:14;15.40;;;6.50;;
66095;SDS011;53861;53.422;14.530;2023-04-01T11:10:05;20.38;;;7.65;;
66095;SDS011;53861;53.422;14.530;2023-04-01T11:16:17;17.52;;;7.20;;
66095;SDS011;53861;53.422;14.530;2023-04-01T11:22:21;21.65;;;9.70;;
66095;SDS011;53861;53.422;14.530;2023-04-01T11:27:55;29.92;;;12.63;;
66095;SDS011;53861;53.422;14.530;2023-04-01T11:30:40;24.45;;;8.80;;
66095;SDS011;53861;53.422;14.530;2023-04-01T11:33:18;20.25;;;8.10;;
66095;SDS011;53861;53.422;14.530;2023-04-01T11:35:59;26.52;;;9.65;;
66095;SDS011;53861;53.422;14.530;2023-04-01T11:38:42;31.90;;;10.93;;
66095;SDS011;53861;53.422;14.530;2023-04-01T11:41:31;27.75;;;12.32;;
66095;SDS011;53861;53.422;14.530;2023-04-01T11:44:10;31.98;;;12.90;;
66095;SDS011;53861;53.422;14.530;2023-04-01T11:46:46;22.83;;;7.95;;
66095;SDS011;53861;53.422;14.530;2023-04-01T11:49:32;28.67;;;11.52;;
66095;SDS011;53861;53.422;14.530;2023-04-01T11:52:15;28.63;;;11.77;;
66095;SDS011;53861;53.422;14.530;2023-04-01T11:55:01;28.75;;;12.05;;
66095;SDS011;53861;53.422;14.530;2023-04-01T11:57:43;30.55;;;12.07;;
66095;SDS011;53861;53.422;14.530;2023-04-01T12:00:24;32.63;;;12.88;;
66095;SDS011;53861;53.422;14.530;2023-04-01T12:03:10;36.42;;;13.38;;
66095;SDS011;53861;53.422;14.530;2023-04-01T12:05:54;37.63;;;16.58;;
66095;SDS011;53861;53.422;14.530;2023-04-01T12:08:31;31.42;;;13.75;;
66095;SDS011;53861;53.422;14.530;2023-04-01T12:11:12;27.10;;;12.50;;
66095;SDS011;53861;53.422;14.530;2023-04-01T12:13:46;23.45;;;10.40;;
66095;SDS011;53861;53.422;14.530;2023-04-01T12:16:25;19.35;;;8.52;;
66095;SDS011;53861;53.422;14.530;2023-04-01T12:19:04;20.70;;;9.68;;
66095;SDS011;53861;53.422;14.530;2023-04-01T12:21:43;22.63;;;8.80;;
66095;SDS011;53861;53.422;14.530;2023-04-01T12:24:29;20.70;;;8.02;;
66095;SDS011;53861;53.422;14.530;2023-04-01T12:27:16;17.00;;;6.15;;
66095;SDS011;53861;53.422;14.530;2023-04-01T12:33:00;18.45;;;6.90;;
66095;SDS011;53861;53.422;14.530;2023-04-01T12:35:53;17.15;;;6.50;;
66095;SDS011;53861;53.422;14.530;2023-04-01T12:38:31;19.48;;;6.18;;
66095;SDS011;53861;53.422;14.530;2023-04-01T12:41:08;18.45;;;7.03;;
66095;SDS011;53861;53.422;14.530;2023-04-01T12:49:52;19.27;;;7.20;;
66095;SDS011;53861;53.422;14.530;2023-04-01T12:52:31;17.55;;;8.60;;
66095;SDS011;53861;53.422;14.530;2023-04-01T13:01:15;29.40;;;13.88;;
66095;SDS011;53861;53.422;14.530;2023-04-01T13:03:56;35.55;;;17.80;;
66095;SDS011;53861;53.422;14.530;2023-04-01T13:06:41;17.33;;;8.90;;
66095;SDS011;53861;53.422;14.530;2023-04-01T13:09:21;21.80;;;10.38;;
66095;SDS011;53861;53.422;14.530;2023-04-01T13:12:04;22.23;;;7.60;;
66095;SDS011;53861;53.422;14.530;2023-04-01T13:15:03;19.45;;;7.43;;
66095;SDS011;53861;53.422;14.530;2023-04-01T13:17:56;11.32;;;6.00;;
66095;SDS011;53861;53.422;14.530;2023-04-01T13:20:35;10.35;;;5.43;;
66095;SDS011;53861;53.422;14.530;2023-04-01T13:23:13;15.20;;;6.03;;
66095;SDS011;53861;53.422;14.530;2023-04-01T13:25:53;24.63;;;10.98;;
66095;SDS011;53861;53.422;14.530;2023-04-01T13:28:32;25.75;;;11.00;;
66095;SDS011;53861;53.422;14.530;2023-04-01T13:31:06;28.70;;;13.88;;
66095;SDS011;53861;53.422;14.530;2023-04-01T13:33:44;23.17;;;9.00;;
66095;SDS011;53861;53.422;14.530;2023-04-01T13:36:22;16.67;;;7.85;;
66095;SDS011;53861;53.422;14.530;2023-04-01T13:39:15;14.75;;;6.25;;
66095;SDS011;53861;53.422;14.530;2023-04-01T13:41:56;13.52;;;5.15;;
66095;SDS011;53861;53.422;14.530;2023-04-01T13:44:44;17.35;;;4.22;;
66095;SDS011;53861;53.422;14.530;2023-04-01T13:47:21;10.77;;;4.85;;
66095;SDS011;53861;53.422;14.530;2023-04-01T13:50:03;17.45;;;4.28;;
66095;SDS011;53861;53.422;14.530;2023-04-01T13:56:03;20.15;;;8.40;;
66095;SDS011;53861;53.422;14.530;2023-04-01T13:58:58;21.50;;;8.85;;
66095;SDS011;53861;53.422;14.530;2023-04-01T14:01:41;23.00;;;8.50;;
66095;SDS011;53861;53.422;14.530;2023-04-01T14:04:27;18.25;;;7.75;;
66095;SDS011;53861;53.422;14.530;2023-04-01T14:07:29;14.57;;;5.82;;
66095;SDS011;53861;53.422;14.530;2023-04-01T14:10:07;11.32;;;4.97;;
66095;SDS011;53861;53.422;14.530;2023-04-01T14:12:46;14.32;;;5.20;;
66095;SDS011;53861;53.422;14.530;2023-04-01T14:15:28;15.50;;;5.82;;
66095;SDS011;53861;53.422;14.530;2023-04-01T14:18:12;17.05;;;7.00;;
66095;SDS011;53861;53.422;14.530;2023-04-01T14:20:50;26.45;;;12.02;;
66095;SDS011;53861;53.422;14.530;2023-04-01T14:26:32;28.60;;;12.48;;
66095;SDS011;53861;53.422;14.530;2023-04-01T14:29:12;25.95;;;10.07;;
66095;SDS011;53861;53.422;14.530;2023-04-01T14:31:59;20.23;;;9.57;;
66095;SDS011;53861;53.422;14.530;2023-04-01T14:37:39;21.48;;;6.97;;
66095;SDS011;53861;53.422;14.530;2023-04-01T14:40:26;16.13;;;7.55;;
66095;SDS011;53861;53.422;14.530;2023-04-01T14:43:14;20.73;;;6.47;;
66095;SDS011;53861;53.422;14.530;2023-04-01T14:49:14;16.98;;;6.22;;
66095;SDS011;53861;53.422;14.530;2023-04-01T14:51:44;20.92;;;6.40;;
66095;SDS011;53861;53.422;14.530;2023-04-01T14:54:13;21.88;;;6.45;;
66095;SDS011;53861;53.422;14.530;2023-04-01T14:56:48;19.77;;;6.65;;
66095;SDS011;53861;53.422;14.530;2023-04-01T14:59:27;16.65;;;6.28;;
66095;SDS011;53861;53.422;14.530;2023-04-01T15:01:57;14.68;;;6.15;;
66095;SDS011;53861;53.422;14.530;2023-04-01T15:04:36;14.30;;;6.20;;
66095;SDS011;53861;53.422;14.530;2023-04-01T15:07:21;10.90;;;4.20;;
66095;SDS011;53861;53.422;14.530;2023-04-01T15:10:09;16.52;;;4.57;;
66095;SDS011;53861;53.422;14.530;2023-04-01T15:12:49;14.75;;;5.00;;
66095;SDS011;53861;53.422;14.530;2023-04-01T15:15:31;12.35;;;4.90;;
66095;SDS011;53861;53.422;14.530;2023-04-01T15:18:08;12.10;;;4.53;;
66095;SDS011;53861;53.422;14.530;2023-04-01T15:20:47;12.40;;;4.30;;
66095;SDS011;53861;53.422;14.530;2023-04-01T15:23:38;9.25;;;4.68;;
66095;SDS011;53861;53.422;14.530;2023-04-01T15:29:20;10.80;;;4.07;;
66095;SDS011;53861;53.422;14.530;2023-04-01T15:32:08;13.23;;;5.10;;
66095;SDS011;53861;53.422;14.530;2023-04-01T15:34:45;16.35;;;5.28;;
66095;SDS011;53861;53.422;14.530;2023-04-01T15:37:28;20.75;;;7.72;;
66095;SDS011;53861;53.422;14.530;2023-04-01T15:40:07;17.48;;;6.72;;
66095;SDS011;53861;53.422;14.530;2023-04-01T15:42:48;13.88;;;5.40;;
66095;SDS011;53861;53.422;14.530;2023-04-01T15:45:31;16.05;;;5.78;;
66095;SDS011;53861;53.422;14.530;2023-04-01T15:48:17;17.33;;;7.25;;
66095;SDS011;53861;53.422;14.530;2023-04-01T15:50:54;18.10;;;7.22;;
66095;SDS011;53861;53.422;14.530;2023-04-01T15:53:43;19.52;;;8.82;;
66095;SDS011;53861;53.422;14.530;2023-04-01T15:56:22;26.60;;;7.57;;
66095;SDS011;53861;53.422;14.530;2023-04-01T15:58:59;20.38;;;8.43;;
66095;SDS011;53861;53.422;14.530;2023-04-01T16:01:38;25.25;;;10.05;;
66095;SDS011;53861;53.422;14.530;2023-04-01T16:04:20;24.60;;;9.90;;
66095;SDS011;53861;53.422;14.530;2023-04-01T16:07:02;19.83;;;7.68;;
66095;SDS011;53861;53.422;14.530;2023-04-01T16:12:31;21.10;;;9.80;;
66095;SDS011;53861;53.422;14.530;2023-04-01T16:15:11;24.70;;;10.40;;
66095;SDS011;53861;53.422;14.530;2023-04-01T16:17:49;21.50;;;9.45;;
66095;SDS011;53861;53.422;14.530;2023-04-01T16:20:34;18.23;;;7.77;;
66095;SDS011;53861;53.422;14.530;2023-04-01T16:23:11;15.90;;;8.10;;
66095;SDS011;53861;53.422;14.530;2023-04-01T16:25:46;22.10;;;9.02;;
66095;SDS011;53861;53.422;14.530;2023-04-01T16:28:19;21.98;;;10.38;;
66095;SDS011;53861;53.422;14.530;2023-04-01T16:30:55;30.48;;;12.30;;
66095;SDS011;53861;53.422;14.530;2023-04-01T16:36:01;20.85;;;10.25;;
66095;SDS011;53861;53.422;14.530;2023-04-01T16:38:38;16.55;;;7.10;;
66095;SDS011;53861;53.422;14.530;2023-04-01T16:41:14;19.17;;;7.35;;
66095;SDS011;53861;53.422;14.530;2023-04-01T16:43:45;19.08;;;8.05;;
66095;SDS011;53861;53.422;14.530;2023-04-01T16:46:25;23.65;;;9.52;;
66095;SDS011;53861;53.422;14.530;2023-04-01T16:48:58;17.08;;;7.32;;
66095;SDS011;53861;53.422;14.530;2023-04-01T16:51:34;11.63;;;5.05;;
66095;SDS011;53861;53.422;14.530;2023-04-01T16:54:10;11.63;;;5.15;;
66095;SDS011;53861;53.422;14.530;2023-04-01T16:56:45;13.48;;;6.38;;